Runnells, IA (50237)

12:27 PM CST on December 09, 2019 (GMT -0600)
East St | | Change Station

Elev 900 ft 41.46 °N, 93.40 °W | Updated 38 seconds ago

Snow
Snow
22.5 °F
Feels Like 10 °F
N
13.2
Wind Variable Wind from NW
Gusts 22.1 mph

Today
High -- | Low -- °F
--% Chance of Precip.
Yesterday
High -- | Low -- °F
Precip. -- in
Pressure 29.77 in
Visibility 8.0 miles
Clouds Mostly Cloudy 1700 ft
Overcast 6000 ft
Windchill 10 °F
Dew Point 15 °F
Humidity 72%
Rainfall 0.00 in
Snow Depth Not available.
7:27 AM 4:43 PM
Waxing Gibbous, 94% visible
SPECI KDSM 091812Z 32018G31KT 8SM -SN BKN017 OVC060 M06/M11 A2977 RMK AO2 PK WND 32031/1807 SNB10 P0000 T10611106
Pressure 29.77 in
Visibility 8.0 miles
Clouds Mostly Cloudy 1700 ft
Overcast 6000 ft
Windchill 10 °F
Dew Point 15 °F
Humidity 72%
Rainfall 0.00 in
Snow Depth Not available.
7:27 AM 4:43 PM
Waxing Gibbous, 94% visible
SPECI KDSM 091812Z 32018G31KT 8SM -SN BKN017 OVC060 M06/M11 A2977 RMK AO2 PK WND 32031/1807 SNB10 P0000 T10611106

Get Severe Weather Alerts

Thanks for signing up!

Be on the lookout for a verification email in your inbox.

You'll start receiving the daily forecast at 6 AM.

×

10-Day Weather Forecast

Almanac

Astronomy

Dec. 09, 2019 Rise Set
Actual Time
Civil Twilight
Nautical Twilight
Astronomical Twilight
Moon
Length of Visible Light
Length of Day
Tomorrow will be .
, % of the Moon is Illuminated

Today's Extremes

State Highs State Lows

Community

WunderPhotos

Category 6

Welcome to Category 6. This is the collective home for Weather Underground's featured writeups by Dr. Jeff Masters (right), Bob Henson (left), Chris Burt, and other regular contributors.

Nearby

Air Quality

  Air Quality AQ Index Pollutant
Not available.

Snow Depth

Station Depth Elevation

Earthquake Activity

City Distance Mag. Time & Date
Minimum magnitude displayed is 2.5.

Coastal Water Temperatures

Place Temperature

Stations

Nearby Weather Stations

Station Location Temp. Windchill Dew Point Humidity Wind Precip. Elev Updated Type
                   

Watches & Warnings

There are currently no watches in effect.